Pagina principale
Immagini satellite Previsioni 15 giorniClimaMeteomar Cicloni Fulmine AeroportiFAQ Bollettino Informazioni
Tempo : Europa Africa America settentrionale America meridionale Asia Australia-Oceania Altri
Lingue Contatto

Genova, Italia

Sestri

latitudine: 44-25N, longitudine: 008-51E, altezza: 2 m


METAR: LIMJ 012320Z 08005KT CAVOK 21/05 Q1010
short-TAF: scaduto (51040 ore)
long-TAF: LIMJ 011700Z 0118/0218 01010KT CAVOK

Ora: 03:46 (01:46 UTC)

Osservazione

Il bollettino è stato emesso 2 ore e 26 minuti fa, alle 23:20 UTC  
Vento 05 kt da est
Temperature 21°C
Umidità 35%
Pressione 1010 hPa
Visibilità 10 km o più
nessuna nube inferiore a 1500 m e nessun cumulonembo

Cambiare le unità

Previsione

Il bollettino è stato emesso 8 ore e 25 minuti fa, alle 17:21 UTC  
Previsione valida dal 01 alle 18 UTC al 02 alle 18 UTC
Vento 10 kt da nord
Visibilità 10 km o più
nessuna nube inferiore a 1500 m e nessun cumulonembo
Le informazioni contenute in questo sito formano oggetto di una clausola di esclusione di responsabilità
Tempo : Europa Africa America settentrionale America meridionale Asia Australia-Oceania Altri
Immagini satellite Previsioni 15 giorniClimaMeteomar Cicloni Fulmine AeroportiFAQ Lingue Contatto Bollettino Informazioni